sensor_id;sensor_type;location;lat;lon;timestamp;temperature;humidity
68248;SHT30;55064;49.636;12.164;2023-05-20T00:00:48;13.57;82.40
68248;SHT30;55064;49.636;12.164;2023-05-20T00:03:17;13.55;82.51
68248;SHT30;55064;49.636;12.164;2023-05-20T00:05:44;13.53;82.50
68248;SHT30;55064;49.636;12.164;2023-05-20T00:08:10;13.51;82.60
68248;SHT30;55064;49.636;12.164;2023-05-20T00:10:39;13.48;82.66
68248;SHT30;55064;49.636;12.164;2023-05-20T00:13:06;13.50;82.82
68248;SHT30;55064;49.636;12.164;2023-05-20T00:15:32;13.47;82.91
68248;SHT30;55064;49.636;12.164;2023-05-20T00:18:00;13.43;83.09
68248;SHT30;55064;49.636;12.164;2023-05-20T00:20:26;13.43;83.21
68248;SHT30;55064;49.636;12.164;2023-05-20T00:22:54;13.43;83.30
68248;SHT30;55064;49.636;12.164;2023-05-20T00:25:22;13.40;83.32
68248;SHT30;55064;49.636;12.164;2023-05-20T00:27:47;13.40;83.28
68248;SHT30;55064;49.636;12.164;2023-05-20T00:30:13;13.40;83.43
68248;SHT30;55064;49.636;12.164;2023-05-20T00:32:40;13.37;83.51
68248;SHT30;55064;49.636;12.164;2023-05-20T00:35:06;13.28;83.79
68248;SHT30;55064;49.636;12.164;2023-05-20T00:37:32;13.28;83.81
68248;SHT30;55064;49.636;12.164;2023-05-20T00:39:57;13.20;83.95
68248;SHT30;55064;49.636;12.164;2023-05-20T00:42:25;13.16;84.15
68248;SHT30;55064;49.636;12.164;2023-05-20T00:44:54;13.17;84.27
68248;SHT30;55064;49.636;12.164;2023-05-20T00:47:24;13.11;84.30
68248;SHT30;55064;49.636;12.164;2023-05-20T00:49:50;13.13;84.43
68248;SHT30;55064;49.636;12.164;2023-05-20T00:52:17;13.16;84.57
68248;SHT30;55064;49.636;12.164;2023-05-20T00:54:43;13.16;84.57
68248;SHT30;55064;49.636;12.164;2023-05-20T00:57:10;13.14;84.61
68248;SHT30;55064;49.636;12.164;2023-05-20T00:59:37;13.19;84.72
68248;SHT30;55064;49.636;12.164;2023-05-20T01:02:06;13.16;84.81
68248;SHT30;55064;49.636;12.164;2023-05-20T01:04:32;13.16;84.79
68248;SHT30;55064;49.636;12.164;2023-05-20T01:07:00;13.11;84.95
68248;SHT30;55064;49.636;12.164;2023-05-20T01:09:26;13.10;85.04
68248;SHT30;55064;49.636;12.164;2023-05-20T01:14:52;13.11;84.90
68248;SHT30;55064;49.636;12.164;2023-05-20T01:17:23;13.09;85.04
68248;SHT30;55064;49.636;12.164;2023-05-20T01:19:53;13.09;85.01
68248;SHT30;55064;49.636;12.164;2023-05-20T01:22:24;13.04;85.20
68248;SHT30;55064;49.636;12.164;2023-05-20T01:24:49;12.99;85.50
68248;SHT30;55064;49.636;12.164;2023-05-20T01:27:18;12.97;85.60
68248;SHT30;55064;49.636;12.164;2023-05-20T01:29:48;12.93;85.65
68248;SHT30;55064;49.636;12.164;2023-05-20T01:32:22;12.92;85.62
68248;SHT30;55064;49.636;12.164;2023-05-20T01:34:50;12.86;85.78
68248;SHT30;55064;49.636;12.164;2023-05-20T01:37:17;12.89;85.78
68248;SHT30;55064;49.636;12.164;2023-05-20T01:39:44;12.86;85.95
68248;SHT30;55064;49.636;12.164;2023-05-20T01:42:10;12.86;86.11
68248;SHT30;55064;49.636;12.164;2023-05-20T01:44:38;12.85;86.15
68248;SHT30;55064;49.636;12.164;2023-05-20T01:47:03;12.79;86.37
68248;SHT30;55064;49.636;12.164;2023-05-20T01:49:31;12.81;86.48
68248;SHT30;55064;49.636;12.164;2023-05-20T01:51:56;12.81;86.45
68248;SHT30;55064;49.636;12.164;2023-05-20T01:54:22;12.88;86.33
68248;SHT30;55064;49.636;12.164;2023-05-20T01:56:51;12.81;86.36
68248;SHT30;55064;49.636;12.164;2023-05-20T01:59:16;12.83;86.38
68248;SHT30;55064;49.636;12.164;2023-05-20T02:01:42;12.82;86.45
68248;SHT30;55064;49.636;12.164;2023-05-20T02:04:08;12.78;86.57
68248;SHT30;55064;49.636;12.164;2023-05-20T02:06:33;12.79;86.56
68248;SHT30;55064;49.636;12.164;2023-05-20T02:09:02;12.76;86.32
68248;SHT30;55064;49.636;12.164;2023-05-20T02:11:27;12.72;86.66
68248;SHT30;55064;49.636;12.164;2023-05-20T02:13:53;12.69;86.65
68248;SHT30;55064;49.636;12.164;2023-05-20T02:16:18;12.68;86.79
68248;SHT30;55064;49.636;12.164;2023-05-20T02:18:43;12.66;86.77
68248;SHT30;55064;49.636;12.164;2023-05-20T02:21:09;12.66;86.09
68248;SHT30;55064;49.636;12.164;2023-05-20T02:23:34;12.66;86.52
68248;SHT30;55064;49.636;12.164;2023-05-20T02:26:00;12.64;86.32
68248;SHT30;55064;49.636;12.164;2023-05-20T02:28:27;12.59;86.65
68248;SHT30;55064;49.636;12.164;2023-05-20T02:30:55;12.49;87.24
68248;SHT30;55064;49.636;12.164;2023-05-20T02:33:22;12.52;87.38
68248;SHT30;55064;49.636;12.164;2023-05-20T02:35:49;12.55;87.02
68248;SHT30;55064;49.636;12.164;2023-05-20T02:38:14;12.59;87.32
68248;SHT30;55064;49.636;12.164;2023-05-20T02:40:43;12.61;87.31
68248;SHT30;55064;49.636;12.164;2023-05-20T02:43:08;12.56;87.66
68248;SHT30;55064;49.636;12.164;2023-05-20T02:45:36;12.56;87.55
68248;SHT30;55064;49.636;12.164;2023-05-20T02:48:01;12.56;87.66
68248;SHT30;55064;49.636;12.164;2023-05-20T02:50:28;12.56;87.83
68248;SHT30;55064;49.636;12.164;2023-05-20T02:52:53;12.58;87.84
68248;SHT30;55064;49.636;12.164;2023-05-20T02:55:20;12.56;87.93
68248;SHT30;55064;49.636;12.164;2023-05-20T02:57:45;12.62;87.84
68248;SHT30;55064;49.636;12.164;2023-05-20T03:00:11;12.61;87.96
68248;SHT30;55064;49.636;12.164;2023-05-20T03:02:38;12.58;88.04
68248;SHT30;55064;49.636;12.164;2023-05-20T03:05:04;12.52;88.10
68248;SHT30;55064;49.636;12.164;2023-05-20T03:07:30;12.54;88.20
68248;SHT30;55064;49.636;12.164;2023-05-20T03:09:56;12.55;88.09
68248;SHT30;55064;49.636;12.164;2023-05-20T03:12:23;12.58;88.20
68248;SHT30;55064;49.636;12.164;2023-05-20T03:14:52;12.54;88.13
68248;SHT30;55064;49.636;12.164;2023-05-20T03:17:20;12.54;88.22
68248;SHT30;55064;49.636;12.164;2023-05-20T03:19:45;12.52;88.08
68248;SHT30;55064;49.636;12.164;2023-05-20T03:22:12;12.56;88.13
68248;SHT30;55064;49.636;12.164;2023-05-20T03:24:37;12.55;88.21
68248;SHT30;55064;49.636;12.164;2023-05-20T03:27:09;12.58;88.11
68248;SHT30;55064;49.636;12.164;2023-05-20T03:29:34;12.54;88.02
68248;SHT30;55064;49.636;12.164;2023-05-20T03:32:02;12.59;87.83
68248;SHT30;55064;49.636;12.164;2023-05-20T03:34:27;12.55;87.95
68248;SHT30;55064;49.636;12.164;2023-05-20T03:36:54;12.58;87.93
68248;SHT30;55064;49.636;12.164;2023-05-20T03:39:24;12.59;87.68
68248;SHT30;55064;49.636;12.164;2023-05-20T03:41:49;12.58;87.60
68248;SHT30;55064;49.636;12.164;2023-05-20T03:44:15;12.61;87.57
68248;SHT30;55064;49.636;12.164;2023-05-20T03:46:41;12.61;87.47
68248;SHT30;55064;49.636;12.164;2023-05-20T03:49:10;12.61;87.66
68248;SHT30;55064;49.636;12.164;2023-05-20T03:51:36;12.59;87.39
68248;SHT30;55064;49.636;12.164;2023-05-20T03:54:01;12.65;87.25
68248;SHT30;55064;49.636;12.164;2023-05-20T03:56:26;12.68;87.28
68248;SHT30;55064;49.636;12.164;2023-05-20T03:58:52;12.68;86.90
68248;SHT30;55064;49.636;12.164;2023-05-20T04:01:18;12.69;86.91
68248;SHT30;55064;49.636;12.164;2023-05-20T04:03:45;12.71;86.81
68248;SHT30;55064;49.636;12.164;2023-05-20T04:06:12;12.73;86.87
68248;SHT30;55064;49.636;12.164;2023-05-20T04:08:38;13.04;85.73
68248;SHT30;55064;49.636;12.164;2023-05-20T04:11:03;13.10;85.50
68248;SHT30;55064;49.636;12.164;2023-05-20T04:13:28;13.11;85.21
68248;SHT30;55064;49.636;12.164;2023-05-20T04:15:54;12.90;85.78
68248;SHT30;55064;49.636;12.164;2023-05-20T04:18:19;13.11;85.78
68248;SHT30;55064;49.636;12.164;2023-05-20T04:20:45;13.37;84.58
68248;SHT30;55064;49.636;12.164;2023-05-20T04:23:11;13.26;84.80
68248;SHT30;55064;49.636;12.164;2023-05-20T04:25:36;13.00;85.67
68248;SHT30;55064;49.636;12.164;2023-05-20T04:28:03;13.00;85.96
68248;SHT30;55064;49.636;12.164;2023-05-20T04:30:29;12.96;85.72
68248;SHT30;55064;49.636;12.164;2023-05-20T04:32:57;12.97;86.01
68248;SHT30;55064;49.636;12.164;2023-05-20T04:35:23;12.90;85.74
68248;SHT30;55064;49.636;12.164;2023-05-20T04:37:50;12.97;86.13
68248;SHT30;55064;49.636;12.164;2023-05-20T04:40:20;13.02;85.82
68248;SHT30;55064;49.636;12.164;2023-05-20T04:42:47;13.04;85.62
68248;SHT30;55064;49.636;12.164;2023-05-20T04:45:13;13.04;85.57
68248;SHT30;55064;49.636;12.164;2023-05-20T04:47:38;13.09;85.56
68248;SHT30;55064;49.636;12.164;2023-05-20T04:50:08;13.13;85.48
68248;SHT30;55064;49.636;12.164;2023-05-20T04:52:38;13.14;84.75
68248;SHT30;55064;49.636;12.164;2023-05-20T04:55:06;13.19;84.57
68248;SHT30;55064;49.636;12.164;2023-05-20T04:57:35;13.30;84.57
68248;SHT30;55064;49.636;12.164;2023-05-20T05:00:03;13.50;84.15
68248;SHT30;55064;49.636;12.164;2023-05-20T05:02:31;13.68;83.86
68248;SHT30;55064;49.636;12.164;2023-05-20T05:04:56;13.82;82.81
68248;SHT30;55064;49.636;12.164;2023-05-20T05:07:23;13.96;82.57
68248;SHT30;55064;49.636;12.164;2023-05-20T05:09:48;13.99;82.80
68248;SHT30;55064;49.636;12.164;2023-05-20T05:12:14;14.05;82.47
68248;SHT30;55064;49.636;12.164;2023-05-20T05:14:39;14.00;81.72
68248;SHT30;55064;49.636;12.164;2023-05-20T05:17:04;14.19;81.19
68248;SHT30;55064;49.636;12.164;2023-05-20T05:19:44;13.95;81.76
68248;SHT30;55064;49.636;12.164;2023-05-20T05:22:10;13.90;81.53
68248;SHT30;55064;49.636;12.164;2023-05-20T05:24:37;14.06;81.43
68248;SHT30;55064;49.636;12.164;2023-05-20T05:27:03;13.78;81.92
68248;SHT30;55064;49.636;12.164;2023-05-20T05:29:33;13.86;82.24
68248;SHT30;55064;49.636;12.164;2023-05-20T05:31:58;14.14;81.21
68248;SHT30;55064;49.636;12.164;2023-05-20T05:34:24;14.17;80.73
68248;SHT30;55064;49.636;12.164;2023-05-20T05:36:49;13.92;80.96
68248;SHT30;55064;49.636;12.164;2023-05-20T05:39:15;14.14;80.86
68248;SHT30;55064;49.636;12.164;2023-05-20T05:41:41;14.27;80.20
68248;SHT30;55064;49.636;12.164;2023-05-20T05:44:06;14.16;80.51
68248;SHT30;55064;49.636;12.164;2023-05-20T05:46:32;14.33;80.27
68248;SHT30;55064;49.636;12.164;2023-05-20T05:48:57;14.34;80.15
68248;SHT30;55064;49.636;12.164;2023-05-20T05:51:25;14.29;80.32
68248;SHT30;55064;49.636;12.164;2023-05-20T05:53:52;14.40;80.25
68248;SHT30;55064;49.636;12.164;2023-05-20T05:56:18;14.34;80.39
68248;SHT30;55064;49.636;12.164;2023-05-20T05:58:44;14.30;80.17
68248;SHT30;55064;49.636;12.164;2023-05-20T06:01:12;14.47;80.21
68248;SHT30;55064;49.636;12.164;2023-05-20T06:03:39;14.24;80.03
68248;SHT30;55064;49.636;12.164;2023-05-20T06:06:04;14.56;80.75
68248;SHT30;55064;49.636;12.164;2023-05-20T06:08:30;14.34;79.94
68248;SHT30;55064;49.636;12.164;2023-05-20T06:11:03;14.65;80.09
68248;SHT30;55064;49.636;12.164;2023-05-20T06:13:29;14.84;78.85
68248;SHT30;55064;49.636;12.164;2023-05-20T06:15:54;15.22;78.17
68248;SHT30;55064;49.636;12.164;2023-05-20T06:18:24;14.92;77.59
68248;SHT30;55064;49.636;12.164;2023-05-20T06:20:56;14.92;78.30
68248;SHT30;55064;49.636;12.164;2023-05-20T06:23:22;15.23;78.11
68248;SHT30;55064;49.636;12.164;2023-05-20T06:25:49;15.48;76.45
68248;SHT30;55064;49.636;12.164;2023-05-20T06:28:18;14.95;77.16
68248;SHT30;55064;49.636;12.164;2023-05-20T06:30:44;15.13;77.50
68248;SHT30;55064;49.636;12.164;2023-05-20T06:33:09;14.95;77.94
68248;SHT30;55064;49.636;12.164;2023-05-20T06:35:35;14.52;78.89
68248;SHT30;55064;49.636;12.164;2023-05-20T06:38:01;14.60;78.88
68248;SHT30;55064;49.636;12.164;2023-05-20T06:40:27;14.82;78.41
68248;SHT30;55064;49.636;12.164;2023-05-20T06:42:54;14.64;78.60
68248;SHT30;55064;49.636;12.164;2023-05-20T06:45:19;14.88;78.01
68248;SHT30;55064;49.636;12.164;2023-05-20T06:47:46;14.89;78.30
68248;SHT30;55064;49.636;12.164;2023-05-20T06:50:18;14.76;78.80
68248;SHT30;55064;49.636;12.164;2023-05-20T06:52:43;14.93;78.08
68248;SHT30;55064;49.636;12.164;2023-05-20T06:55:11;14.93;77.58
68248;SHT30;55064;49.636;12.164;2023-05-20T06:57:37;14.96;77.73
68248;SHT30;55064;49.636;12.164;2023-05-20T07:00:04;15.00;77.42
68248;SHT30;55064;49.636;12.164;2023-05-20T07:02:31;15.02;76.82
68248;SHT30;55064;49.636;12.164;2023-05-20T07:04:58;14.85;77.86
68248;SHT30;55064;49.636;12.164;2023-05-20T07:07:23;15.03;77.59
68248;SHT30;55064;49.636;12.164;2023-05-20T07:09:49;14.91;77.62
68248;SHT30;55064;49.636;12.164;2023-05-20T07:12:14;15.06;77.39
68248;SHT30;55064;49.636;12.164;2023-05-20T07:14:40;15.22;77.58
68248;SHT30;55064;49.636;12.164;2023-05-20T07:17:05;15.26;77.06
68248;SHT30;55064;49.636;12.164;2023-05-20T07:19:31;15.30;76.20
68248;SHT30;55064;49.636;12.164;2023-05-20T07:21:56;15.07;77.26
68248;SHT30;55064;49.636;12.164;2023-05-20T07:24:22;15.20;77.40
68248;SHT30;55064;49.636;12.164;2023-05-20T07:26:47;15.34;76.82
68248;SHT30;55064;49.636;12.164;2023-05-20T07:29:13;15.39;76.61
68248;SHT30;55064;49.636;12.164;2023-05-20T07:31:38;15.34;76.72
68248;SHT30;55064;49.636;12.164;2023-05-20T07:34:04;15.37;76.83
68248;SHT30;55064;49.636;12.164;2023-05-20T07:36:29;15.41;76.74
68248;SHT30;55064;49.636;12.164;2023-05-20T07:38:56;15.41;76.11
68248;SHT30;55064;49.636;12.164;2023-05-20T07:41:23;15.19;76.36
68248;SHT30;55064;49.636;12.164;2023-05-20T07:43:48;15.03;77.16
68248;SHT30;55064;49.636;12.164;2023-05-20T07:46:16;14.65;77.92
68248;SHT30;55064;49.636;12.164;2023-05-20T07:48:41;14.82;77.80
68248;SHT30;55064;49.636;12.164;2023-05-20T07:51:07;14.72;78.22
68248;SHT30;55064;49.636;12.164;2023-05-20T07:53:33;14.58;78.25
68248;SHT30;55064;49.636;12.164;2023-05-20T07:55:58;14.88;78.62
68248;SHT30;55064;49.636;12.164;2023-05-20T07:58:30;14.78;77.90
68248;SHT30;55064;49.636;12.164;2023-05-20T08:00:56;15.59;77.06
68248;SHT30;55064;49.636;12.164;2023-05-20T08:03:21;15.22;76.94
68248;SHT30;55064;49.636;12.164;2023-05-20T08:05:47;15.13;77.27
68248;SHT30;55064;49.636;12.164;2023-05-20T08:08:15;15.33;76.37
68248;SHT30;55064;49.636;12.164;2023-05-20T08:10:41;15.29;76.51
68248;SHT30;55064;49.636;12.164;2023-05-20T08:13:06;15.30;76.09
68248;SHT30;55064;49.636;12.164;2023-05-20T08:15:43;15.26;76.48
68248;SHT30;55064;49.636;12.164;2023-05-20T08:18:22;15.10;77.16
68248;SHT30;55064;49.636;12.164;2023-05-20T08:20:48;15.00;76.87
68248;SHT30;55064;49.636;12.164;2023-05-20T08:23:15;15.22;76.43
68248;SHT30;55064;49.636;12.164;2023-05-20T08:25:40;15.10;76.19
68248;SHT30;55064;49.636;12.164;2023-05-20T08:28:11;15.69;75.56
68248;SHT30;55064;49.636;12.164;2023-05-20T08:30:39;15.10;76.60
68248;SHT30;55064;49.636;12.164;2023-05-20T08:33:05;15.31;76.69
68248;SHT30;55064;49.636;12.164;2023-05-20T08:35:38;15.09;76.86
68248;SHT30;55064;49.636;12.164;2023-05-20T08:38:05;15.31;76.28
68248;SHT30;55064;49.636;12.164;2023-05-20T08:40:33;15.30;76.26
68248;SHT30;55064;49.636;12.164;2023-05-20T08:43:01;15.47;75.97
68248;SHT30;55064;49.636;12.164;2023-05-20T08:45:30;14.96;76.65
68248;SHT30;55064;49.636;12.164;2023-05-20T08:47:59;15.50;75.96
68248;SHT30;55064;49.636;12.164;2023-05-20T08:50:25;15.29;76.87
68248;SHT30;55064;49.636;12.164;2023-05-20T08:52:50;15.53;76.19
68248;SHT30;55064;49.636;12.164;2023-05-20T08:55:18;15.22;77.19
68248;SHT30;55064;49.636;12.164;2023-05-20T08:57:54;15.22;76.60
68248;SHT30;55064;49.636;12.164;2023-05-20T09:00:21;15.41;76.13
68248;SHT30;55064;49.636;12.164;2023-05-20T09:02:51;16.26;74.84
68248;SHT30;55064;49.636;12.164;2023-05-20T09:05:21;16.78;73.15
68248;SHT30;55064;49.636;12.164;2023-05-20T09:07:47;15.78;74.53
68248;SHT30;55064;49.636;12.164;2023-05-20T09:10:13;16.40;74.23
68248;SHT30;55064;49.636;12.164;2023-05-20T09:12:41;16.47;73.50
68248;SHT30;55064;49.636;12.164;2023-05-20T09:15:07;16.60;73.35
68248;SHT30;55064;49.636;12.164;2023-05-20T09:17:36;16.39;73.00
68248;SHT30;55064;49.636;12.164;2023-05-20T09:20:09;16.29;73.80
68248;SHT30;55064;49.636;12.164;2023-05-20T09:22:35;16.61;73.41
68248;SHT30;55064;49.636;12.164;2023-05-20T09:25:05;16.53;73.54
68248;SHT30;55064;49.636;12.164;2023-05-20T09:27:32;16.81;72.70
68248;SHT30;55064;49.636;12.164;2023-05-20T09:30:00;16.99;73.01
68248;SHT30;55064;49.636;12.164;2023-05-20T09:32:27;16.98;71.64
68248;SHT30;55064;49.636;12.164;2023-05-20T09:34:55;16.77;72.77
68248;SHT30;55064;49.636;12.164;2023-05-20T09:37:28;17.32;71.35
68248;SHT30;55064;49.636;12.164;2023-05-20T09:40:03;17.57;70.83
68248;SHT30;55064;49.636;12.164;2023-05-20T09:42:50;17.63;70.78
68248;SHT30;55064;49.636;12.164;2023-05-20T09:45:16;17.67;70.47
68248;SHT30;55064;49.636;12.164;2023-05-20T09:47:42;17.46;71.32
68248;SHT30;55064;49.636;12.164;2023-05-20T09:50:09;17.64;70.80
68248;SHT30;55064;49.636;12.164;2023-05-20T09:52:36;17.73;70.69
68248;SHT30;55064;49.636;12.164;2023-05-20T09:55:02;16.98;71.98
68248;SHT30;55064;49.636;12.164;2023-05-20T09:57:32;17.50;71.27
68248;SHT30;55064;49.636;12.164;2023-05-20T09:59:58;17.54;70.43
68248;SHT30;55064;49.636;12.164;2023-05-20T10:02:23;17.46;70.84
68248;SHT30;55064;49.636;12.164;2023-05-20T10:04:50;17.57;70.42
68248;SHT30;55064;49.636;12.164;2023-05-20T10:07:46;17.98;70.41
68248;SHT30;55064;49.636;12.164;2023-05-20T10:10:31;17.63;71.00
68248;SHT30;55064;49.636;12.164;2023-05-20T10:21:23;18.84;68.54
68248;SHT30;55064;49.636;12.164;2023-05-20T10:23:51;18.01;70.21
68248;SHT30;55064;49.636;12.164;2023-05-20T10:26:19;18.18;70.68
68248;SHT30;55064;49.636;12.164;2023-05-20T10:28:47;18.35;70.05
68248;SHT30;55064;49.636;12.164;2023-05-20T10:31:22;18.33;69.58
68248;SHT30;55064;49.636;12.164;2023-05-20T10:33:52;19.05;68.69
68248;SHT30;55064;49.636;12.164;2023-05-20T10:36:28;19.54;67.97
68248;SHT30;55064;49.636;12.164;2023-05-20T10:38:58;19.75;66.60
68248;SHT30;55064;49.636;12.164;2023-05-20T10:41:42;19.90;66.10
68248;SHT30;55064;49.636;12.164;2023-05-20T10:44:08;19.77;66.50
68248;SHT30;55064;49.636;12.164;2023-05-20T10:46:34;19.25;66.89
68248;SHT30;55064;49.636;12.164;2023-05-20T10:49:03;19.05;67.80
68248;SHT30;55064;49.636;12.164;2023-05-20T10:51:29;19.07;67.99
68248;SHT30;55064;49.636;12.164;2023-05-20T10:53:56;19.40;66.97
68248;SHT30;55064;49.636;12.164;2023-05-20T10:56:32;19.36;66.25
68248;SHT30;55064;49.636;12.164;2023-05-20T10:59:00;19.69;66.86
68248;SHT30;55064;49.636;12.164;2023-05-20T11:01:29;19.70;66.10
68248;SHT30;55064;49.636;12.164;2023-05-20T11:03:56;19.73;66.81
68248;SHT30;55064;49.636;12.164;2023-05-20T11:06:26;20.55;65.03
68248;SHT30;55064;49.636;12.164;2023-05-20T11:08:52;20.73;63.92
68248;SHT30;55064;49.636;12.164;2023-05-20T11:11:18;20.73;63.59
68248;SHT30;55064;49.636;12.164;2023-05-20T11:13:52;20.85;63.80
68248;SHT30;55064;49.636;12.164;2023-05-20T11:16:19;21.08;63.59
68248;SHT30;55064;49.636;12.164;2023-05-20T11:18:47;21.43;62.78
68248;SHT30;55064;49.636;12.164;2023-05-20T11:21:15;20.80;63.40
68248;SHT30;55064;49.636;12.164;2023-05-20T11:23:43;20.87;64.09
68248;SHT30;55064;49.636;12.164;2023-05-20T11:26:09;20.74;64.11
68248;SHT30;55064;49.636;12.164;2023-05-20T11:28:34;21.37;63.88
68248;SHT30;55064;49.636;12.164;2023-05-20T11:31:00;21.42;62.10
68248;SHT30;55064;49.636;12.164;2023-05-20T11:33:25;21.49;62.07
68248;SHT30;55064;49.636;12.164;2023-05-20T11:35:56;21.80;62.29
68248;SHT30;55064;49.636;12.164;2023-05-20T11:38:23;21.87;61.13
68248;SHT30;55064;49.636;12.164;2023-05-20T11:40:53;21.90;61.10
68248;SHT30;55064;49.636;12.164;2023-05-20T11:43:20;21.89;60.82
68248;SHT30;55064;49.636;12.164;2023-05-20T11:45:52;21.50;61.30
68248;SHT30;55064;49.636;12.164;2023-05-20T11:48:18;21.62;61.92
68248;SHT30;55064;49.636;12.164;2023-05-20T11:50:45;21.37;60.37
68248;SHT30;55064;49.636;12.164;2023-05-20T11:58:18;21.92;61.20
68248;SHT30;55064;49.636;12.164;2023-05-20T12:00:44;22.20;60.28
68248;SHT30;55064;49.636;12.164;2023-05-20T12:03:09;22.32;59.52
68248;SHT30;55064;49.636;12.164;2023-05-20T12:05:39;22.51;58.57
68248;SHT30;55064;49.636;12.164;2023-05-20T12:08:06;22.48;58.11
68248;SHT30;55064;49.636;12.164;2023-05-20T12:10:32;22.72;58.18
68248;SHT30;55064;49.636;12.164;2023-05-20T12:13:02;22.58;57.92
68248;SHT30;55064;49.636;12.164;2023-05-20T12:15:31;22.56;58.13
68248;SHT30;55064;49.636;12.164;2023-05-20T12:17:57;22.30;58.51
68248;SHT30;55064;49.636;12.164;2023-05-20T12:20:23;22.07;59.15
68248;SHT30;55064;49.636;12.164;2023-05-20T12:22:51;22.27;59.68
68248;SHT30;55064;49.636;12.164;2023-05-20T12:25:19;22.24;59.68
68248;SHT30;55064;49.636;12.164;2023-05-20T12:27:47;22.37;59.13
68248;SHT30;55064;49.636;12.164;2023-05-20T12:30:17;22.66;58.49
68248;SHT30;55064;49.636;12.164;2023-05-20T12:32:44;22.73;57.53
68248;SHT30;55064;49.636;12.164;2023-05-20T12:35:10;22.80;58.55
68248;SHT30;55064;49.636;12.164;2023-05-20T12:37:37;23.08;58.48
68248;SHT30;55064;49.636;12.164;2023-05-20T12:40:02;23.40;57.10
68248;SHT30;55064;49.636;12.164;2023-05-20T12:42:43;23.40;57.33
68248;SHT30;55064;49.636;12.164;2023-05-20T12:45:10;23.17;57.21
68248;SHT30;55064;49.636;12.164;2023-05-20T12:47:36;23.21;56.86
68248;SHT30;55064;49.636;12.164;2023-05-20T12:50:04;23.24;56.56
68248;SHT30;55064;49.636;12.164;2023-05-20T12:52:31;23.04;55.86
68248;SHT30;55064;49.636;12.164;2023-05-20T12:54:57;23.34;56.38
68248;SHT30;55064;49.636;12.164;2023-05-20T12:57:23;22.92;56.48
68248;SHT30;55064;49.636;12.164;2023-05-20T12:59:49;22.68;56.88
68248;SHT30;55064;49.636;12.164;2023-05-20T13:02:16;23.65;56.39
68248;SHT30;55064;49.636;12.164;2023-05-20T13:04:42;23.85;54.82
68248;SHT30;55064;49.636;12.164;2023-05-20T13:07:08;23.89;54.60
68248;SHT30;55064;49.636;12.164;2023-05-20T13:09:36;23.40;55.49
68248;SHT30;55064;49.636;12.164;2023-05-20T13:12:01;23.28;56.15
68248;SHT30;55064;49.636;12.164;2023-05-20T13:14:29;23.15;56.00
68248;SHT30;55064;49.636;12.164;2023-05-20T13:16:56;23.02;56.56
68248;SHT30;55064;49.636;12.164;2023-05-20T13:19:21;22.68;56.07
68248;SHT30;55064;49.636;12.164;2023-05-20T13:21:48;22.48;56.53
68248;SHT30;55064;49.636;12.164;2023-05-20T13:24:14;23.07;57.42
68248;SHT30;55064;49.636;12.164;2023-05-20T13:26:40;22.86;55.79
68248;SHT30;55064;49.636;12.164;2023-05-20T13:29:05;23.24;56.44
68248;SHT30;55064;49.636;12.164;2023-05-20T13:31:33;23.68;55.25
68248;SHT30;55064;49.636;12.164;2023-05-20T13:33:59;23.47;55.32
68248;SHT30;55064;49.636;12.164;2023-05-20T13:36:25;23.38;55.70
68248;SHT30;55064;49.636;12.164;2023-05-20T13:38:51;23.45;55.26
68248;SHT30;55064;49.636;12.164;2023-05-20T13:41:16;23.90;55.24
68248;SHT30;55064;49.636;12.164;2023-05-20T13:43:43;23.72;54.57
68248;SHT30;55064;49.636;12.164;2023-05-20T13:46:08;23.61;54.77
68248;SHT30;55064;49.636;12.164;2023-05-20T13:48:33;23.86;54.51
68248;SHT30;55064;49.636;12.164;2023-05-20T13:51:02;24.18;54.18
68248;SHT30;55064;49.636;12.164;2023-05-20T13:53:30;24.06;53.54
68248;SHT30;55064;49.636;12.164;2023-05-20T13:55:58;23.62;54.86
68248;SHT30;55064;49.636;12.164;2023-05-20T13:58:23;23.52;54.97
68248;SHT30;55064;49.636;12.164;2023-05-20T14:00:50;23.06;56.02
68248;SHT30;55064;49.636;12.164;2023-05-20T14:03:18;22.89;56.44
68248;SHT30;55064;49.636;12.164;2023-05-20T14:05:46;23.20;55.66
68248;SHT30;55064;49.636;12.164;2023-05-20T14:08:12;23.13;55.66
68248;SHT30;55064;49.636;12.164;2023-05-20T14:10:37;23.57;55.41
68248;SHT30;55064;49.636;12.164;2023-05-20T14:13:04;23.83;55.12
68248;SHT30;55064;49.636;12.164;2023-05-20T14:15:32;23.89;55.04
68248;SHT30;55064;49.636;12.164;2023-05-20T14:17:58;22.99;56.22
68248;SHT30;55064;49.636;12.164;2023-05-20T14:20:24;23.58;56.02
68248;SHT30;55064;49.636;12.164;2023-05-20T14:22:51;23.61;54.25
68248;SHT30;55064;49.636;12.164;2023-05-20T14:25:19;23.66;54.79
68248;SHT30;55064;49.636;12.164;2023-05-20T14:27:48;23.97;55.06
68248;SHT30;55064;49.636;12.164;2023-05-20T14:30:13;23.72;53.77
68248;SHT30;55064;49.636;12.164;2023-05-20T14:32:39;23.08;55.30
68248;SHT30;55064;49.636;12.164;2023-05-20T14:35:05;23.40;55.33
68248;SHT30;55064;49.636;12.164;2023-05-20T14:37:30;23.37;54.11
68248;SHT30;55064;49.636;12.164;2023-05-20T14:39:56;23.25;54.58
68248;SHT30;55064;49.636;12.164;2023-05-20T14:42:21;23.04;55.09
68248;SHT30;55064;49.636;12.164;2023-05-20T14:44:47;23.31;55.17
68248;SHT30;55064;49.636;12.164;2023-05-20T14:47:13;23.57;54.95
68248;SHT30;55064;49.636;12.164;2023-05-20T14:49:44;23.41;54.52
68248;SHT30;55064;49.636;12.164;2023-05-20T14:52:10;23.21;55.02
68248;SHT30;55064;49.636;12.164;2023-05-20T14:54:36;22.75;55.63
68248;SHT30;55064;49.636;12.164;2023-05-20T14:57:01;22.83;55.77
68248;SHT30;55064;49.636;12.164;2023-05-20T14:59:28;22.96;55.63
68248;SHT30;55064;49.636;12.164;2023-05-20T15:01:53;22.58;55.80
68248;SHT30;55064;49.636;12.164;2023-05-20T15:04:20;22.32;56.24
68248;SHT30;55064;49.636;12.164;2023-05-20T15:06:46;22.42;56.05
68248;SHT30;55064;49.636;12.164;2023-05-20T15:09:20;22.22;56.52
68248;SHT30;55064;49.636;12.164;2023-05-20T15:11:49;22.37;56.81
68248;SHT30;55064;49.636;12.164;2023-05-20T15:14:15;22.59;56.35
68248;SHT30;55064;49.636;12.164;2023-05-20T15:16:40;22.37;56.37
68248;SHT30;55064;49.636;12.164;2023-05-20T15:19:08;22.45;56.71
68248;SHT30;55064;49.636;12.164;2023-05-20T15:21:37;22.42;55.86
68248;SHT30;55064;49.636;12.164;2023-05-20T15:24:08;22.49;56.06
68248;SHT30;55064;49.636;12.164;2023-05-20T15:26:34;22.49;56.46
68248;SHT30;55064;49.636;12.164;2023-05-20T15:28:59;22.39;56.30
68248;SHT30;55064;49.636;12.164;2023-05-20T15:31:27;22.30;56.27